Gary Fernandez

Recruteur - Universidad Catolica
26 Sept 2027
Dimanche
Processus

Personnalité

Adaptabilité (2) Ambition (6) Controverse (2) Loyauté (19) Pression (7) Professionnalisme (1) Sportivité (12) Tempérament (2)

Profil

Style d'entraînement Démocratique
Diplôme Continental A
Détermination 6
Gestion des joueurs 7
Motivation 14
Discipline 5
Satisfaction professionnelle
100%
Fatigue
0%
Rôle Recruteur
Salaire 51.9K p/s
Contrat 14.03.2028

Performance

Comportement Bon
Efficacité de l'entraînement
51%
Développement des joueurs
25%
Prévention des blessures
60%
Mise en place tactique
30%

Événements récents

A participé à une réunion de recrutement 7j
A participé à une réunion de recrutement 7j
A participé à une réunion de recrutement 14j
A participé à une réunion de recrutement 14j
A participé à une réunion de recrutement 21j
A participé à une réunion de recrutement 21j
A participé à une réunion de recrutement 28j
A participé à une réunion de recrutement 28j

Suivi en cours

173
Joueur Club Statut Capacité Confiance Observé Dernière observation Dernier vote
Nicolas Schmid Portsmouth Perdu 123 / 120 40% 1 02.06.2027 -
Daniel Iversen Preston Actif 132 / 132 40% 1 02.06.2027 -
Pablo Parra Universidad de Concepcion Perdu 112 / 112 62% 1 01.06.2027 -
Adrià Altimira Deportivo La Coruña Actif 128 / 129 40% 6 31.05.2027 -
Callum Brittain Middlesbrough Actif 132 / 131 40% 1 31.05.2027 -
Saša Lukić Ipswich Town Actif 152 / 142 40% 4 30.05.2027 -
Welington Southampton Actif 119 / 130 40% 3 28.05.2027 -
Kwadwo Baah Watford Actif 140 / 129 40% 4 28.05.2027 -
Jason Knight Bristol City Actif 133 / 134 40% 1 27.05.2027 -
Marcus Edwards Burnley Actif 150 / 139 40% 5 26.05.2027 -
Luka Romero Cruz Azul Actif 113 / 122 40% 3 26.05.2027 -
Rumarn Burrell Queens Park Rangers Actif 118 / 128 40% 3 24.05.2027 -
Matt O'Riley Blackburn Rovers Actif 143 / 141 40% 1 24.05.2027 -
Anton Stach Leeds United Actif 142 / 153 40% 3 22.05.2027 -
Lewis Cook Bournemouth Actif 155 / 142 40% 1 22.05.2027 Plus d'infos
Lorenzo Amatucci Deportivo La Coruña Actif 120 / 131 40% 1 19.05.2027 -
Nordi Mukiele Sunderland Actif 137 / 139 40% 1 19.05.2027 -
Léo Scienza Southampton Actif 133 / 131 40% 3 16.05.2027 -
Giorgi Chakvetadze Watford Actif 139 / 132 40% 2 15.05.2027 -
Josh Murphy Portsmouth Actif 136 / 128 40% 1 15.05.2027 -
Brooke Norton-Cuffy Hull City Actif 147 / 138 40% 7 14.05.2027 -
Rob Atkinson Bristol City Actif 113 / 123 40% 1 14.05.2027 -
Aaron Hickey Brentford Actif 159 / 142 40% 1 13.05.2027 -
Aidomo Emakhu Oxford United Actif 127 / 127 40% 1 12.05.2027 -
Filip Marschall Stevenage Actif 102 / 109 40% 3 11.05.2027 -
Josh Keeley Luton Town Actif 126 / 129 40% 2 11.05.2027 -
Ronald Swansea City Actif 132 / 130 40% 1 11.05.2027 -
Finn Azaz Southampton Actif 113 / 132 40% 1 08.05.2027 -
Stephy Mavididi Leicester City Actif 120 / 123 40% 1 07.05.2027 -
Florentino Luís Ipswich Town Actif 134 / 137 40% 3 05.05.2027 -
Sergio Barlocco Trento Actif 111 / 110 40% 1 05.05.2027 -
Ethan Ampadu Leeds United Actif 144 / 145 40% 1 05.05.2027 -
Tim Iroegbunam Hull City Actif 138 / 141 40% 3 02.05.2027 -
Dara O'Shea Ipswich Town Actif 147 / 130 40% 1 02.05.2027 -
Marcelo Allende Mamelodi Sundowns Actif 136 / 129 40% 2 01.05.2027 -
Igor Burnley Actif 137 / 137 40% 2 01.05.2027 -
Jack Rudoni Coventry City Actif 136 / 131 40% 1 29.04.2027 -
Maduka Okoye Udinese Actif 141 / 137 40% 1 29.04.2027 -
Jordan Amissah Burton Albion Actif 103 / 110 40% 3 27.04.2027 -
Aaron Collins Milton Keynes Dons Actif 114 / 119 40% 1 26.04.2027 -
Tyrese Campbell Sheffield United Actif 140 / 121 40% 2 25.04.2027 -
Relebohile Mofokeng Orlando Pirates Actif 132 / 126 40% 2 22.04.2027 -
Giacomo Raspadori Atalanta Actif 142 / 147 40% 2 19.04.2027 -
Kristoffer Lund Birmingham Actif 118 / 129 40% 2 18.04.2027 -
Issa Kaboré Wrexham Actif 117 / 130 40% 2 16.04.2027 -
Alessandro Buongiorno Udinese Actif 141 / 160 40% 1 16.04.2027 -
Andre Brooks Sheffield United Actif 143 / 127 40% 2 13.04.2027 -
Joseph Sulemana WAFA Actif 92 / 106 40% 1 08.04.2027 -
Efraín Álvarez Udinese Actif 142 / 124 40% 2 05.04.2027 -
Ilyas Ansah Hull City Actif 120 / 131 40% 1 05.04.2027 -
Noah Sadiki Sunderland Actif 131 / 149 40% 1 01.04.2027 -
Mohammed Galadima Aswan Actif 83 / 98 40% 1 31.03.2027 -
Killian Cahill Leyton Orient Actif 100 / 104 40% 1 28.03.2027 -
Will Dennis Milton Keynes Dons Actif 106 / 107 40% 3 26.03.2027 -
Joshua Oluwayemi Newport County Actif 98 / 100 40% 1 26.03.2027 -
John Okoye Ebuka Ittihad Actif 128 / 111 40% 1 23.03.2027 -
Hlompho Manyama Sivasspor Actif 106 / 115 40% 1 20.03.2027 -
Nathan Bishop AFC Wimbledon Actif 96 / 104 40% 4 16.03.2027 -
Thulani Furman SuperSport United Actif 125 / 102 40% 2 11.03.2027 -
Tom Booth Crewe Alexandra Actif 111 / 100 40% 1 11.03.2027 -
Bobby Thomas Coventry City Actif 125 / 133 40% 1 03.03.2027 -
Ibrahim Sangaré Nottingham Forest Actif 158 / 141 40% 1 03.03.2027 -
Oleksandr Saputin Zorya Actif 132 / 118 40% 2 28.02.2027 -
Jacques Ekomié Wrexham Actif 126 / 126 40% 1 27.02.2027 -
Exequiel Palacios Ipswich Town Actif 153 / 150 40% 1 26.02.2027 -
Matthew Targett Hull City Actif 119 / 125 40% 3 21.02.2027 -
Elia Caprile Cagliari Actif 142 / 149 40% 2 16.02.2027 -
Bilal Bayazıt Kayserispor Actif 133 / 122 40% 1 16.02.2027 -
George Wickens Lincoln City Actif 123 / 117 40% 1 10.02.2027 -
Phil Neumann Birmingham Actif 116 / 120 40% 1 09.02.2027 -
Tormena Krasnodar Actif 123 / 132 40% 1 09.02.2027 -
Cameron Pring Bristol City Perdu 116 / 132 40% 1 08.02.2027 -
Karel Spáčil Viktoria Plzen Actif 132 / 126 40% 1 08.02.2027 -
Arthur Beroe Actif 111 / 107 40% 1 08.02.2027 -
Hidemasa Morita Hull City Actif 140 / 138 40% 1 04.02.2027 -
Stephen Eustáquio Swansea City Actif 142 / 141 40% 1 04.02.2027 -
Andile Vilakazi Free State Stars Actif 116 / 123 40% 1 01.02.2027 -
Gastón Benedetti Estudiantes Actif 126 / 128 40% 1 01.02.2027 -
Jordan Lotomba Bloemfontein Celtic Actif 110 / 120 40% 2 31.01.2027 -
Matías Pérez Racing Club Actif 119 / 126 40% 1 31.01.2027 -
Agustín Lastra Estudiantes Actif 119 / 112 40% 1 29.01.2027 -
Jimmy Dunne Queens Park Rangers Actif 126 / 125 40% 1 28.01.2027 -
Sasha Marcich Lanús Actif 129 / 124 40% 2 26.01.2027 -
Francisco Álvarez Argentinos Juniors Actif 125 / 128 40% 1 24.01.2027 -
Claudio Bravo Argentinos Juniors Actif 131 / 120 40% 1 24.01.2027 -
Egoitz Arana Real Sociedad Actif 105 / 109 40% 1 23.01.2027 -
Enzo Vázquez Central Norte Actif 110 / 112 40% 1 23.01.2027 -
Ferland Mendy Basel Actif 143 / 146 40% 3 22.01.2027 -
Emanuel Coronel Rosario Central Actif 136 / 124 40% 1 22.01.2027 -
Teboho Mokoena Mamelodi Sundowns Actif 149 / 135 40% 2 21.01.2027 -
Gastón Hernández San Lorenzo Actif 132 / 124 40% 1 21.01.2027 -
Nahuel Manganelli San Martín Actif 112 / 113 40% 2 19.01.2027 -
Sebastián Valdez Independiente Actif 120 / 124 40% 1 19.01.2027 -
Franco Ibarra Rosario Central Actif 129 / 131 40% 1 15.01.2027 -
Ignacio Vázquez Platense Actif 132 / 126 40% 1 15.01.2027 -
Grégoire Coudert Burnley Actif 115 / 134 40% 1 15.01.2027 -
Murphy Cooper Plymouth Argyle Actif 127 / 112 40% 1 15.01.2027 -
Rodrigo González Aldosivi Actif 124 / 121 40% 1 11.01.2027 -
Alexis Maldonado Belgrano Actif 131 / 123 40% 1 11.01.2027 -
Leonardo Godoy Independiente Actif 118 / 125 40% 2 09.01.2027 -
Michael Cooper Sheffield United Actif 146 / 125 40% 1 08.01.2027 -
Nicolás Sumavil Platense Actif 119 / 118 40% 1 06.01.2027 -
Joaquín Enrico San Telmo Actif 108 / 107 40% 1 06.01.2027 -
José Florentín Independiente Rivadavia Actif 119 / 123 40% 1 04.01.2027 -
Melker Ellborg Sunderland Actif 121 / 116 40% 1 30.11.2026 -
Juan Bisanz Huracán Actif 137 / 123 40% 1 28.11.2026 -
Edwuin Cetré Estudiantes Actif 130 / 124 40% 1 28.11.2026 -
Breel Embolo Ankaragucu Actif 133 / 144 40% 4 27.11.2026 -
Leo Ceara Kashima Antlers Actif 148 / 130 40% 3 25.11.2026 -
Erik Botheim Viking Actif 144 / 127 40% 2 22.11.2026 -
M'Bala Nzola Cagliari Actif 124 / 129 40% 1 22.11.2026 -
Lucas Souto Defensa y Justicia Actif 133 / 119 40% 3 21.11.2026 -
Ulises Sánchez Gimnasia y Esgrima Actif 126 / 124 40% 2 20.11.2026 -
Sebastián Villa Boca Juniors Actif 125 / 129 40% 1 18.11.2026 -
Domagoj Drožđek Tractor Actif 135 / 128 40% 1 18.11.2026 -
Rafael Santos Borré River Plate Actif 140 / 132 40% 1 17.11.2026 -
Alexey Miranchuk Krasnodar Actif 149 / 149 40% 3 15.11.2026 -
Cristian Shpendi Cesena Actif 130 / 134 40% 1 14.11.2026 -
Tobias Bech AGF Actif 113 / 126 40% 1 11.11.2026 -
Tomáš Chorý CSKA Moscow Actif 132 / 147 40% 1 10.11.2026 -
Oli McBurnie Hull City Actif 135 / 126 40% 1 08.11.2026 -
Youssef Al Hammadi Al Shaab Actif 121 / 127 40% 1 05.11.2026 -
Franco Cristaldo Talleres Actif 116 / 122 40% 2 04.11.2026 -
Alex Luna Instituto Actif 135 / 128 40% 1 03.11.2026 -
Jherson Mosquera Newell's Old Boys Actif 125 / 121 40% 1 02.11.2026 -
Federico Navarro Rosario Central Actif 127 / 131 40% 1 31.10.2026 -
Gastón Lodico Racing Club Actif 132 / 127 40% 1 31.10.2026 -
Nicolás Tripichio San Lorenzo Actif 121 / 123 40% 1 30.10.2026 -
Kristian Eriksen Molde Actif 124 / 125 40% 1 25.10.2026 -
Tatsuhiro Sakamoto Coventry City Actif 144 / 129 40% 1 24.10.2026 -
Dániel Gazdag New England Revolution Actif 120 / 125 40% 3 21.10.2026 -
José Alberti Wanderers Actif 121 / 126 40% 1 20.10.2026 -
Mandla Phiri SuperSport United Actif 152 / 143 40% 1 18.10.2026 -
Nacho Vidal Lech Actif 115 / 123 40% 2 15.10.2026 -
Maurits Kjærgaard Red Bull Salzburg Actif 113 / 127 40% 1 14.10.2026 -
Nahuel Furtado Wanderers Actif 119 / 124 40% 1 13.10.2026 -
Iker Muñoz Osasuna Actif 114 / 134 40% 1 13.10.2026 -
Takuma Asano Sanfrecce Hiroshima Actif 126 / 140 40% 2 10.10.2026 -
Cheikh Sabaly Vancouver Whitecaps Actif 116 / 116 40% 1 09.10.2026 -
Ryoya Yamashita Gamba Osaka Actif 118 / 123 40% 2 06.10.2026 -
Toni Lato Zob Ahan Actif 108 / 131 40% 1 06.10.2026 -
Evander NK Osijek Actif 128 / 140 40% 1 02.10.2026 -
Lucas Assadi AIK Actif 109 / 123 40% 1 02.10.2026 -
Haissem Hassan Bloemfontein Celtic Actif 123 / 125 40% 1 30.09.2026 -
Denis Bouanga Los Angeles Football Club Actif 118 / 137 40% 1 30.09.2026 -
José Gayà Valencia Actif 131 / 128 40% 1 27.09.2026 -
Bongokuhle Hlongwane Minnesota United FC Actif 118 / 122 40% 1 25.09.2026 -
Siyabonga Mothiba Ajax Cape Town Actif 125 / 120 40% 1 21.09.2026 -
Veljko Birmančević Ferencvaros Actif 128 / 132 40% 3 17.09.2026 -
Christian Kouamé Aris Thessaloniki Actif 136 / 135 40% 1 15.09.2026 -
Pablo Ibañez Alavés Actif 116 / 130 40% 1 14.09.2026 -
Antony Portland Timbers Actif 120 / 138 40% 2 11.09.2026 -
Kelvin Yeboah Minnesota United FC Actif 115 / 118 40% 2 11.09.2026 -
Antonio Galeano Remo Stars Actif 135 / 128 40% 1 10.09.2026 -
Rob Holding Colorado Rapids Actif 119 / 129 40% 1 09.09.2026 -
David Douděra FC Cincinnati Actif 113 / 135 40% 2 08.09.2026 -
Mikkel Desler Austin FC Actif 114 / 124 40% 1 08.09.2026 -
Gabriel Pirani San Diego Football Club Actif 126 / 138 40% 1 07.09.2026 -
Aliou Dieng Valencia Actif 112 / 130 40% 1 07.09.2026 -
Francisco González Metilli Belgrano Actif 116 / 127 40% 1 03.09.2026 -
Clayton Olympiacos Actif 115 / 125 40% 1 02.09.2026 -
Barnabás Varga AEK Actif 118 / 135 40% 1 02.09.2026 -
Musa Barrow Al-Khaleej Actif 122 / 129 40% 2 31.08.2026 -
Mutsuki Kato Sanfrecce Hiroshima Actif 135 / 136 40% 1 30.08.2026 -
Riqui Puig LA Galaxy Actif 135 / 124 40% 1 28.08.2026 -
Miles Robinson FC Cincinnati Actif 139 / 130 40% 1 27.08.2026 -
Justin de Haas Valencia Actif 130 / 123 40% 1 27.08.2026 -
Juan Manuel Sanabria Real Salt Lake Actif 124 / 125 40% 1 23.08.2026 -
Lukas Engel Real Salt Lake Actif 136 / 115 40% 1 23.08.2026 -
Luca Langoni New England Revolution Actif 126 / 127 40% 2 22.08.2026 -
Allan Saint-Maximin Charlotte Football Club Actif 139 / 139 40% 1 22.08.2026 -
Timothy Castagne CSKA Moscow Actif 147 / 141 40% 1 20.08.2026 -
Cristian Roldan Seattle Sounders Actif 114 / 128 40% 1 17.08.2026 -